createdAt,value
2023-01-23T00:01:20.782Z,98914.53
2023-01-23T00:03:47.924Z,98912.28
2023-01-23T00:06:16.902Z,98916.63
2023-01-23T00:08:45.877Z,98919.72
2023-01-23T00:11:15.714Z,98915.13
2023-01-23T00:13:42.789Z,98911.88
2023-01-23T00:16:13.873Z,98919.41
2023-01-23T00:18:41.373Z,98916.56
2023-01-23T00:21:11.110Z,98909.91
2023-01-23T00:23:38.350Z,98911.50
2023-01-23T00:26:07.788Z,98903.09
2023-01-23T00:28:35.759Z,98905.00
2023-01-23T00:31:07.910Z,98903.09
2023-01-23T00:33:35.158Z,98902.53
2023-01-23T00:36:02.898Z,98902.53
2023-01-23T00:38:30.101Z,98899.41
2023-01-23T00:40:57.240Z,98892.44
2023-01-23T00:43:25.600Z,98896.09
2023-01-23T00:45:52.653Z,98899.50
2023-01-23T00:48:19.838Z,98890.31
2023-01-23T00:50:47.910Z,98896.59
2023-01-23T00:53:15.300Z,98891.53
2023-01-23T00:55:42.644Z,98891.53
2023-01-23T00:58:10.216Z,98886.66
2023-01-23T01:00:38.357Z,98887.41
2023-01-23T01:03:06.262Z,98884.28
2023-01-23T01:05:34.340Z,98886.50
2023-01-23T01:08:01.653Z,98886.03
2023-01-23T01:10:29.805Z,98884.38
2023-01-23T01:12:58.294Z,98882.00
2023-01-23T01:15:25.816Z,98875.22
2023-01-23T01:17:56.011Z,98876.69
2023-01-23T01:20:26.318Z,98877.16
2023-01-23T01:22:55.070Z,98878.50
2023-01-23T01:25:22.212Z,98871.69
2023-01-23T01:27:49.375Z,98870.06
2023-01-23T01:30:18.905Z,98871.69
2023-01-23T01:32:46.197Z,98876.75
2023-01-23T01:35:13.432Z,98868.78
2023-01-23T01:37:42.478Z,98865.81
2023-01-23T01:40:14.240Z,98871.59
2023-01-23T01:42:44.235Z,98873.53
2023-01-23T01:45:48.988Z,98876.47
2023-01-23T01:48:16.010Z,98870.69
2023-01-23T01:50:43.592Z,98877.97
2023-01-23T01:53:12.058Z,98878.56
2023-01-23T01:55:40.225Z,98878.56
2023-01-23T01:58:08.648Z,98878.13
2023-01-23T02:00:36.535Z,98867.94
2023-01-23T02:03:04.078Z,98869.09
2023-01-23T02:05:43.026Z,98867.66
2023-01-23T02:08:14.997Z,98876.38
2023-01-23T02:10:44.408Z,98868.38
2023-01-23T02:13:34.251Z,98871.06
2023-01-23T02:16:04.262Z,98872.22
2023-01-23T02:18:33.126Z,98868.69
2023-01-23T02:21:04.000Z,98873.53
2023-01-23T02:23:33.753Z,98868.50
2023-01-23T02:26:05.463Z,98872.63
2023-01-23T02:28:44.799Z,98873.66
2023-01-23T02:31:13.117Z,98875.84
2023-01-23T02:33:40.161Z,98864.75
2023-01-23T02:36:09.261Z,98868.13
2023-01-23T02:38:42.109Z,98871.69
2023-01-23T02:41:12.707Z,98867.56
2023-01-23T02:43:39.853Z,98862.53
2023-01-23T02:46:10.046Z,98868.13
2023-01-23T02:48:40.392Z,98862.66
2023-01-23T02:51:07.948Z,98859.25
2023-01-23T02:53:35.023Z,98863.84
2023-01-23T02:56:02.131Z,98856.03
2023-01-23T02:58:47.642Z,98847.50
2023-01-23T03:01:14.740Z,98849.69
2023-01-23T03:03:44.445Z,98852.66
2023-01-23T03:06:11.941Z,98855.09
2023-01-23T03:08:48.665Z,98851.09
2023-01-23T03:11:18.404Z,98847.06
2023-01-23T03:13:47.054Z,98846.63
2023-01-23T03:16:14.511Z,98851.47
2023-01-23T03:18:53.401Z,98847.91
2023-01-23T03:21:21.678Z,98855.59
2023-01-23T03:23:48.833Z,98843.22
2023-01-23T03:26:16.310Z,98841.44
2023-01-23T03:29:01.947Z,98847.69
2023-01-23T03:31:29.112Z,98840.16
2023-01-23T03:33:56.215Z,98833.41
2023-01-23T03:36:23.303Z,98836.47
2023-01-23T03:39:09.289Z,98834.72
2023-01-23T03:41:38.474Z,98826.75
2023-01-23T03:44:05.795Z,98826.03
2023-01-23T03:46:32.896Z,98835.03
2023-01-23T03:48:59.958Z,98833.06
2023-01-23T03:51:27.062Z,98824.84
2023-01-23T03:53:54.330Z,98821.59
2023-01-23T03:56:21.344Z,98822.34
2023-01-23T03:58:48.404Z,98810.25
2023-01-23T04:01:15.951Z,98812.91
2023-01-23T04:03:43.147Z,98806.53
2023-01-23T04:06:10.184Z,98810.56
2023-01-23T04:08:37.346Z,98810.03
2023-01-23T04:11:08.947Z,98804.69
2023-01-23T04:13:36.673Z,98809.56
2023-01-23T04:16:05.402Z,98809.09
2023-01-23T04:18:33.031Z,98814.88
2023-01-23T04:21:00.203Z,98816.09
2023-01-23T04:23:27.379Z,98824.50
2023-01-23T04:25:54.454Z,98816.25
2023-01-23T04:28:21.807Z,98812.13
2023-01-23T04:30:52.167Z,98807.56
2023-01-23T04:33:20.365Z,98802.50
2023-01-23T04:36:07.475Z,98802.66
2023-01-23T04:38:35.295Z,98810.09
2023-01-23T04:41:03.049Z,98807.44
2023-01-23T04:43:30.815Z,98803.13
2023-01-23T04:45:58.179Z,98800.28
2023-01-23T04:48:25.699Z,98797.00
2023-01-23T04:50:53.006Z,98793.88
2023-01-23T04:53:20.226Z,98792.88
2023-01-23T04:55:49.643Z,98788.75
2023-01-23T04:58:19.011Z,98770.13
2023-01-23T05:00:46.826Z,98775.16
2023-01-23T05:03:15.831Z,98786.41
2023-01-23T05:05:44.547Z,98776.69
2023-01-23T05:08:12.403Z,98777.25
2023-01-23T05:10:39.607Z,98772.50
2023-01-23T05:13:07.130Z,98772.78
2023-01-23T05:15:34.311Z,98776.59
2023-01-23T05:18:01.569Z,98783.13
2023-01-23T05:20:28.688Z,98778.38
2023-01-23T05:22:58.236Z,98778.47
2023-01-23T05:25:28.203Z,98782.16
2023-01-23T05:27:55.719Z,98773.16
2023-01-23T05:30:23.970Z,98769.28
2023-01-23T05:32:51.281Z,98771.22
2023-01-23T05:35:18.462Z,98762.06
2023-01-23T05:37:50.016Z,98761.06
2023-01-23T05:40:17.124Z,98761.31
2023-01-23T05:42:44.295Z,98759.38
2023-01-23T05:45:12.885Z,98760.41
2023-01-23T05:47:39.995Z,98759.22
2023-01-23T05:50:08.668Z,98762.44
2023-01-23T05:52:36.688Z,98753.44
2023-01-23T05:55:04.401Z,98755.81
2023-01-23T05:57:31.607Z,98754.81
2023-01-23T05:59:58.601Z,98754.06
2023-01-23T06:02:25.801Z,98758.66
2023-01-23T06:04:55.668Z,98757.47
2023-01-23T06:07:22.844Z,98755.81
2023-01-23T06:09:49.862Z,98757.56
2023-01-23T06:12:16.989Z,98760.88
2023-01-23T06:14:44.143Z,98758.09
2023-01-23T06:17:12.731Z,98759.59
2023-01-23T06:19:39.986Z,98760.88
2023-01-23T06:22:07.049Z,98758.75
2023-01-23T06:24:34.054Z,98759.03
2023-01-23T06:27:01.176Z,98758.13
2023-01-23T06:29:28.197Z,98755.47
2023-01-23T06:31:55.494Z,98761.53
2023-01-23T06:34:22.665Z,98756.66
2023-01-23T06:36:49.657Z,98750.16
2023-01-23T06:39:16.829Z,98757.38
2023-01-23T06:41:44.564Z,98761.22
2023-01-23T06:44:12.114Z,98760.50
2023-01-23T06:46:39.153Z,98753.16
2023-01-23T06:49:06.963Z,98754.34
2023-01-23T06:51:34.664Z,98752.91
2023-01-23T06:54:01.706Z,98757.19
2023-01-23T06:56:29.015Z,98754.69
2023-01-23T06:58:56.536Z,98756.66
2023-01-23T07:01:24.511Z,98760.47
2023-01-23T07:03:51.849Z,98763.44
2023-01-23T07:06:19.001Z,98761.06
2023-01-23T07:08:46.085Z,98766.63
2023-01-23T07:11:13.387Z,98763.88
2023-01-23T07:13:40.421Z,98764.50
2023-01-23T07:16:07.952Z,98766.63
2023-01-23T07:18:36.252Z,98767.78
2023-01-23T07:21:06.756Z,98773.13
2023-01-23T07:23:34.891Z,98773.59
2023-01-23T07:26:04.484Z,98774.97
2023-01-23T07:28:31.556Z,98771.56
2023-01-23T07:30:59.986Z,98776.41
2023-01-23T07:33:27.235Z,98783.94
2023-01-23T07:35:54.816Z,98781.03
2023-01-23T07:38:23.639Z,98783.94
2023-01-23T07:40:51.329Z,98788.25
2023-01-23T07:43:18.927Z,98782.94
2023-01-23T07:45:45.977Z,98784.97
2023-01-23T07:48:13.173Z,98778.44
2023-01-23T07:50:40.545Z,98781.56
2023-01-23T07:53:07.579Z,98782.31
2023-01-23T07:55:34.939Z,98790.56
2023-01-23T07:58:02.043Z,98782.56
2023-01-23T08:00:30.494Z,98780.84
2023-01-23T08:02:58.056Z,98789.25
2023-01-23T08:05:25.964Z,98793.13
2023-01-23T08:08:07.347Z,98791.34
2023-01-23T08:10:38.682Z,98796.66
2023-01-23T08:13:05.717Z,98788.69
2023-01-23T08:15:32.780Z,98785.03
2023-01-23T08:17:59.759Z,98790.34
2023-01-23T08:20:26.959Z,98794.66
2023-01-23T08:22:54.113Z,98798.03
2023-01-23T08:25:21.263Z,98795.94
2023-01-23T08:27:48.712Z,98798.28
2023-01-23T08:30:16.081Z,98801.75
2023-01-23T08:32:43.324Z,98802.88
2023-01-23T08:35:10.601Z,98796.66
2023-01-23T08:37:38.135Z,98795.91
2023-01-23T08:40:05.736Z,98797.38
2023-01-23T08:42:33.060Z,98800.31
2023-01-23T08:45:00.090Z,98807.28
2023-01-23T08:47:27.560Z,98816.19
2023-01-23T08:49:54.580Z,98815.91
2023-01-23T08:52:21.643Z,98817.53
2023-01-23T08:54:49.052Z,98813.69
2023-01-23T08:57:16.157Z,98813.53
2023-01-23T08:59:44.600Z,98817.03
2023-01-23T09:02:14.429Z,98811.69
2023-01-23T09:04:41.614Z,98810.94
2023-01-23T09:07:08.681Z,98817.03
2023-01-23T09:09:35.963Z,98816.09
2023-01-23T09:12:03.181Z,98826.38
2023-01-23T09:14:30.213Z,98819.81
2023-01-23T09:16:57.377Z,98830.09
2023-01-23T09:19:24.423Z,98829.75
2023-01-23T09:21:54.709Z,98835.81
2023-01-23T09:24:21.828Z,98836.50
2023-01-23T09:26:48.876Z,98837.53
2023-01-23T09:29:16.125Z,98840.31
2023-01-23T09:31:43.200Z,98840.69
2023-01-23T09:34:10.332Z,98849.75
2023-01-23T09:36:43.347Z,98841.13
2023-01-23T09:39:11.359Z,98853.97
2023-01-23T09:41:39.618Z,98850.59
2023-01-23T09:44:14.674Z,98852.59
2023-01-23T09:46:59.499Z,98853.88
2023-01-23T09:49:37.597Z,98851.94
2023-01-23T09:52:13.488Z,98862.44
2023-01-23T09:54:40.497Z,98863.16
2023-01-23T09:57:15.851Z,98859.56
2023-01-23T09:59:59.744Z,98853.75
2023-01-23T10:02:28.738Z,98863.97
2023-01-23T10:04:58.414Z,98867.69
2023-01-23T10:07:38.032Z,98871.06
2023-01-23T10:10:35.610Z,98875.66
2023-01-23T10:13:16.531Z,98870.34
2023-01-23T10:16:14.959Z,98875.06
2023-01-23T10:18:54.590Z,98869.22
2023-01-23T10:22:03.657Z,98873.09
2023-01-23T10:24:45.750Z,98873.09
2023-01-23T10:27:46.255Z,98882.28
2023-01-23T10:30:22.518Z,98875.47
2023-01-23T10:33:02.279Z,98879.31
2023-01-23T10:35:56.763Z,98878.44
2023-01-23T10:38:40.288Z,98880.81
2023-01-23T10:41:14.874Z,98881.25
2023-01-23T10:43:44.158Z,98882.00
2023-01-23T10:46:20.516Z,98881.00
2023-01-23T10:48:52.316Z,98882.38
2023-01-23T10:51:47.209Z,98876.28
2023-01-23T10:54:31.408Z,98883.66
2023-01-23T10:57:02.627Z,98880.69
2023-01-23T10:59:35.752Z,98886.78
2023-01-23T11:02:25.310Z,98887.59
2023-01-23T11:04:52.874Z,98885.19
2023-01-23T11:07:25.310Z,98891.75
2023-01-23T11:10:01.662Z,98878.44
2023-01-23T11:12:34.479Z,98884.47
2023-01-23T11:15:49.483Z,98876.03
2023-01-23T11:18:34.565Z,98879.22
2023-01-23T11:21:02.458Z,98873.72
2023-01-23T11:23:31.222Z,98870.34
2023-01-23T11:25:58.454Z,98876.22
2023-01-23T11:28:31.218Z,98871.41
2023-01-23T11:31:12.842Z,98875.81
2023-01-23T11:34:23.687Z,98873.31
2023-01-23T11:37:14.620Z,98864.84
2023-01-23T11:39:53.439Z,98867.63
2023-01-23T11:42:21.145Z,98862.19
2023-01-23T11:44:49.911Z,98865.53
2023-01-23T11:47:41.745Z,98856.19
2023-01-23T11:50:09.798Z,98859.94
2023-01-23T11:52:53.266Z,98852.69
2023-01-23T11:55:38.966Z,98844.97
2023-01-23T11:58:49.327Z,98835.56
2023-01-23T12:01:34.638Z,98840.41
2023-01-23T12:04:20.096Z,98834.28
2023-01-23T12:07:02.245Z,98831.31
2023-01-23T12:09:43.346Z,98822.72
2023-01-23T12:12:39.567Z,98828.72
2023-01-23T12:15:28.222Z,98829.56
2023-01-23T12:18:25.928Z,98815.91
2023-01-23T12:21:19.585Z,98811.22
2023-01-23T12:24:00.741Z,98813.38
2023-01-23T12:26:29.840Z,98806.75
2023-01-23T12:28:56.840Z,98804.03
2023-01-23T12:31:57.465Z,98800.44
2023-01-23T12:34:45.377Z,98792.84
2023-01-23T12:37:43.896Z,98793.06
2023-01-23T12:40:26.842Z,98777.53
2023-01-23T12:43:07.926Z,98780.28
2023-01-23T12:45:38.465Z,98779.69
2023-01-23T12:48:34.267Z,98774.84
2023-01-23T12:51:21.264Z,98779.84
2023-01-23T12:53:52.827Z,98764.53
2023-01-23T12:56:35.398Z,98759.56
2023-01-23T12:59:08.613Z,98750.72
2023-01-23T13:01:38.460Z,98746.44
2023-01-23T13:04:32.339Z,98735.88
2023-01-23T13:07:17.072Z,98730.41
2023-01-23T13:10:14.194Z,98732.41
2023-01-23T13:12:41.380Z,98720.53
2023-01-23T13:15:18.987Z,98721.75
2023-01-23T13:18:01.120Z,98715.19
2023-01-23T13:20:48.664Z,98708.66
2023-01-23T13:23:35.719Z,98706.91
2023-01-23T13:26:21.269Z,98701.31
2023-01-23T13:28:56.630Z,98690.88
2023-01-23T13:31:42.453Z,98699.50
2023-01-23T13:34:18.799Z,98680.97
2023-01-23T13:36:50.255Z,98682.84
2023-01-23T13:39:17.338Z,98676.78
2023-01-23T13:41:46.110Z,98667.78
2023-01-23T13:44:40.788Z,98665.38
2023-01-23T14:22:30.543Z,98619.53
2023-01-23T14:24:58.191Z,98615.72
2023-01-23T14:27:54.660Z,98615.75
2023-01-23T14:30:28.490Z,98609.00
2023-01-23T14:32:56.263Z,98614.28
2023-01-23T14:35:32.113Z,98603.31
2023-01-23T14:38:06.850Z,98604.53
2023-01-23T14:40:48.956Z,98604.53
2023-01-23T14:43:23.832Z,98604.03
2023-01-23T14:45:58.231Z,98596.25
2023-01-23T14:48:25.727Z,98594.31
2023-01-23T14:51:06.858Z,98595.94
2023-01-23T14:53:33.996Z,98607.34
2023-01-23T14:56:02.256Z,98595.69
2023-01-23T14:58:30.671Z,98602.78
2023-01-23T15:00:58.300Z,98604.94
2023-01-23T15:03:39.413Z,98600.28
2023-01-23T15:06:19.346Z,98598.84
2023-01-23T15:08:47.656Z,98592.81
2023-01-23T15:11:15.051Z,98598.34
2023-01-23T15:13:48.585Z,98601.28
2023-01-23T15:16:26.456Z,98597.97
2023-01-23T15:19:01.971Z,98596.28
2023-01-23T15:21:40.540Z,98598.72
2023-01-23T15:24:10.644Z,98593.84
2023-01-23T15:26:40.472Z,98595.78
2023-01-23T15:29:07.515Z,98590.16
2023-01-23T15:31:40.719Z,98586.16
2023-01-23T15:34:17.025Z,98595.47
2023-01-23T15:37:00.699Z,98581.25
2023-01-23T15:39:41.503Z,98594.88
2023-01-23T15:42:14.504Z,98606.66
2023-01-23T15:44:43.113Z,98597.97
2023-01-23T15:47:11.940Z,98598.84
2023-01-23T15:49:40.342Z,98593.19
2023-01-23T15:53:06.097Z,98593.31
2023-01-23T15:55:33.147Z,98588.28
2023-01-23T15:58:01.461Z,98588.88
2023-01-23T16:00:29.955Z,98590.94
2023-01-23T16:02:59.453Z,98591.81
2023-01-23T16:05:29.984Z,98591.28
2023-01-23T16:08:01.378Z,98597.31
2023-01-23T16:10:31.615Z,98594.91
2023-01-23T16:12:59.224Z,98596.47
2023-01-23T16:15:31.772Z,98603.19
2023-01-23T16:17:59.095Z,98596.72
2023-01-23T16:20:43.193Z,98585.84
2023-01-23T16:23:21.134Z,98583.66
2023-01-23T16:25:49.369Z,98590.78
2023-01-23T16:28:20.388Z,98585.69
2023-01-23T16:30:48.598Z,98580.69
2023-01-23T16:33:16.141Z,98588.06
2023-01-23T16:35:43.667Z,98596.47
2023-01-23T16:38:20.757Z,98596.06
2023-01-23T16:40:47.866Z,98587.59
2023-01-23T16:43:14.918Z,98589.69
2023-01-23T16:45:41.987Z,98595.03
2023-01-23T16:48:10.973Z,98583.03
2023-01-23T16:50:46.554Z,98586.34
2023-01-23T16:53:28.670Z,98595.75
2023-01-23T16:55:58.219Z,98598.88
2023-01-23T16:58:28.931Z,98602.00
2023-01-23T17:01:01.890Z,98603.28
2023-01-23T17:03:33.102Z,98608.88
2023-01-23T17:06:00.464Z,98604.22
2023-01-23T17:08:28.311Z,98602.94
2023-01-23T17:10:58.865Z,98609.41
2023-01-23T17:13:27.053Z,98617.38
2023-01-23T17:15:55.984Z,98616.66
2023-01-23T17:18:28.531Z,98620.25
2023-01-23T17:20:56.582Z,98626.25
2023-01-23T17:23:25.479Z,98628.38
2023-01-23T17:26:00.779Z,98632.91
2023-01-23T17:28:29.136Z,98633.56
2023-01-23T17:31:00.694Z,98634.03
2023-01-23T17:33:31.866Z,98642.75
2023-01-23T17:36:01.038Z,98633.47
2023-01-23T17:38:34.740Z,98640.69
2023-01-23T17:41:02.393Z,98642.16
2023-01-23T17:43:29.634Z,98642.88
2023-01-23T17:45:57.111Z,98636.13
2023-01-23T17:48:30.527Z,98644.34
2023-01-23T17:50:58.174Z,98640.47
2023-01-23T17:53:25.310Z,98637.16
2023-01-23T17:55:53.073Z,98637.69
2023-01-23T17:58:21.415Z,98634.03
2023-01-23T18:00:51.386Z,98634.22
2023-01-23T18:03:22.111Z,98638.78
2023-01-23T18:05:49.579Z,98637.94
2023-01-23T18:08:18.833Z,98633.81
2023-01-23T18:10:48.162Z,98631.88
2023-01-23T18:13:37.663Z,98632.19
2023-01-23T18:16:27.410Z,98632.44
2023-01-23T18:19:01.170Z,98622.50
2023-01-23T18:21:28.789Z,98626.16
2023-01-23T18:23:56.265Z,98631.69
2023-01-23T18:26:58.633Z,98630.59
2023-01-23T18:29:34.189Z,98627.91
2023-01-23T18:32:38.560Z,98626.34
2023-01-23T18:35:54.875Z,98627.19
2023-01-23T18:38:37.190Z,98636.38
2023-01-23T18:41:15.960Z,98641.25
2023-01-23T18:44:01.345Z,98632.72
2023-01-23T18:46:28.582Z,98643.00
2023-01-23T18:48:55.898Z,98644.59
2023-01-23T18:51:49.518Z,98641.38
2023-01-23T18:54:16.524Z,98644.13
2023-01-23T18:56:50.879Z,98638.41
2023-01-23T18:59:49.697Z,98647.47
2023-01-23T19:02:31.953Z,98637.41
2023-01-23T19:05:11.173Z,98639.56
2023-01-23T19:07:38.641Z,98629.94
2023-01-23T19:10:07.856Z,98637.28
2023-01-23T19:12:41.971Z,98637.06
2023-01-23T19:15:21.563Z,98634.13
2023-01-23T19:18:20.624Z,98634.88
2023-01-23T19:21:10.986Z,98636.06
2023-01-23T19:23:46.800Z,98635.81
2023-01-23T19:26:14.766Z,98634.53
2023-01-23T19:28:42.113Z,98640.06
2023-01-23T19:31:20.151Z,98644.81
2023-01-23T19:33:47.737Z,98640.06
2023-01-23T19:36:15.034Z,98650.88
2023-01-23T19:38:42.587Z,98651.38
2023-01-23T19:41:44.759Z,98651.81
2023-01-23T19:44:25.381Z,98656.41
2023-01-23T19:46:52.864Z,98651.09
2023-01-23T19:49:20.023Z,98651.09
2023-01-23T19:51:47.404Z,98645.22
2023-01-23T19:54:15.599Z,98652.91
2023-01-23T19:56:43.042Z,98658.53
2023-01-23T19:59:10.198Z,98662.66
2023-01-23T20:01:43.657Z,98661.00
2023-01-23T20:04:20.220Z,98660.78
2023-01-23T20:06:49.286Z,98655.75
2023-01-23T20:09:16.406Z,98672.28
2023-01-23T20:11:45.028Z,98668.69
2023-01-23T20:14:13.165Z,98678.63
2023-01-23T20:16:43.383Z,98679.34
2023-01-23T20:19:15.175Z,98676.66
2023-01-23T20:21:43.057Z,98674.94
2023-01-23T20:24:10.321Z,98685.59
2023-01-23T20:26:37.671Z,98680.00
2023-01-23T20:29:06.042Z,98683.56
2023-01-23T20:31:33.469Z,98691.31
2023-01-23T20:34:00.670Z,98682.06
2023-01-23T20:36:29.009Z,98682.81
2023-01-23T20:38:57.188Z,98682.06
2023-01-23T20:41:24.291Z,98684.75
2023-01-23T20:43:51.492Z,98684.31
2023-01-23T20:46:19.651Z,98685.47
2023-01-23T20:48:47.145Z,98687.41
2023-01-23T20:51:16.531Z,98681.53
2023-01-23T20:53:44.263Z,98682.78
2023-01-23T20:56:16.193Z,98683.03
2023-01-23T20:59:04.724Z,98685.44
2023-01-23T21:01:54.000Z,98686.34
2023-01-23T21:04:23.044Z,98689.47
2023-01-23T21:06:50.222Z,98697.19
2023-01-23T21:09:17.815Z,98697.63
2023-01-23T21:11:45.156Z,98699.84
2023-01-23T21:14:13.776Z,98692.59
2023-01-23T21:16:40.929Z,98696.44
2023-01-23T21:19:08.115Z,98694.06
2023-01-23T21:21:35.742Z,98701.56
2023-01-23T21:24:02.965Z,98691.41
2023-01-23T21:26:30.750Z,98702.06
2023-01-23T21:28:58.853Z,98697.91
2023-01-23T21:31:33.429Z,98695.25
2023-01-23T21:34:06.287Z,98690.91
2023-01-23T21:36:33.412Z,98694.59
2023-01-23T21:39:00.658Z,98684.69
2023-01-23T21:41:27.716Z,98689.28
2023-01-23T21:43:54.808Z,98684.69
2023-01-23T21:46:22.099Z,98690.16
2023-01-23T21:48:49.244Z,98682.88
2023-01-23T21:51:18.448Z,98683.78
2023-01-23T21:53:47.838Z,98691.50
2023-01-23T21:56:17.441Z,98692.41
2023-01-23T21:58:44.635Z,98689.47
2023-01-23T22:01:33.417Z,98691.84
2023-01-23T22:04:10.547Z,98687.44
2023-01-23T22:06:40.330Z,98693.06
2023-01-23T22:09:08.488Z,98690.66
2023-01-23T22:11:36.011Z,98695.81
2023-01-23T22:14:03.299Z,98692.13
2023-01-23T22:16:47.403Z,98688.31
2023-01-23T22:19:17.932Z,98688.00
2023-01-23T22:21:46.899Z,98686.06
2023-01-23T22:24:15.064Z,98685.06
2023-01-23T22:26:42.925Z,98688.00
2023-01-23T22:29:12.301Z,98696.53
2023-01-23T22:31:39.429Z,98696.34
2023-01-23T22:34:06.609Z,98692.97
2023-01-23T22:36:33.785Z,98686.97
2023-01-23T22:39:00.925Z,98690.16
2023-01-23T22:41:28.916Z,98690.75
2023-01-23T22:43:59.484Z,98695.13
2023-01-23T22:46:27.839Z,98689.81
2023-01-23T22:48:55.049Z,98695.13
2023-01-23T22:51:24.932Z,98695.38
2023-01-23T22:53:56.518Z,98695.69
2023-01-23T22:56:25.473Z,98700.72
2023-01-23T22:58:54.606Z,98701.94
2023-01-23T23:01:27.364Z,98700.03
2023-01-23T23:03:57.854Z,98699.75
2023-01-23T23:06:25.465Z,98692.19
2023-01-23T23:08:52.727Z,98692.69
2023-01-23T23:11:22.223Z,98697.53
2023-01-23T23:13:49.646Z,98689.47
2023-01-23T23:16:19.877Z,98690.31
2023-01-23T23:18:48.885Z,98687.06
2023-01-23T23:21:18.361Z,98687.06
2023-01-23T23:23:46.014Z,98680.31
2023-01-23T23:26:13.420Z,98679.94
2023-01-23T23:28:42.320Z,98686.16
2023-01-23T23:31:10.485Z,98685.44
2023-01-23T23:33:37.880Z,98680.97
2023-01-23T23:36:05.993Z,98676.38
2023-01-23T23:38:33.300Z,98672.22
2023-01-23T23:41:02.945Z,98670.50
2023-01-23T23:43:30.346Z,98667.81
2023-01-23T23:46:00.598Z,98663.22
2023-01-23T23:48:28.930Z,98672.41
2023-01-23T23:51:00.330Z,98664.44
2023-01-23T23:53:27.716Z,98663.22
2023-01-23T23:55:54.943Z,98672.41
2023-01-23T23:58:24.081Z,98671.50
